Time;durP1;ratioP1;P1;durP2;ratioP2;P2;SDS_P1;SDS_P2;PMS_P1;PMS_P2;Temp;Humidity;BMP_temperature;BMP_pressure;BME280_temperature;BME280_humidity;BME280_pressure;Samples;Min_cycle;Max_cycle;Signal;HPM_P1;HPM_P2
2023/08/17 00:02:12;;;;;;;9.40;6.60;;;23.30;17.70;;;;;;5043345;28;20466;-66
2023/08/17 00:04:40;;;;;;;6.83;5.33;;;23.30;17.90;;;;;;5047507;28;20831;-66
2023/08/17 00:07:07;;;;;;;7.43;5.80;;;23.20;17.90;;;;;;5048302;28;20954;-67
2023/08/17 00:09:34;;;;;;;7.73;6.17;;;23.20;18.00;;;;;;5044643;28;20481;-69
2023/08/17 00:12:00;;;;;;;8.73;5.90;;;23.20;18.10;;;;;;5048678;28;20902;-67
2023/08/17 00:14:27;;;;;;;7.27;6.10;;;23.20;18.20;;;;;;5049201;28;20465;-67
2023/08/17 00:16:54;;;;;;;8.37;6.30;;;23.20;18.30;;;;;;5046605;28;20933;-67
2023/08/17 00:19:20;;;;;;;6.80;5.53;;;23.10;18.50;;;;;;5047653;28;20482;-67
2023/08/17 00:21:49;;;;;;;8.50;5.97;;;23.10;18.70;;;;;;5048536;28;20454;-67
2023/08/17 00:24:15;;;;;;;7.93;6.57;;;23.10;18.60;;;;;;5049973;28;20458;-67
2023/08/17 00:26:42;;;;;;;8.20;6.20;;;23.10;18.60;;;;;;5050148;28;20458;-67
2023/08/17 00:29:09;;;;;;;10.80;6.93;;;23.10;18.70;;;;;;5049299;28;20474;-67
2023/08/17 00:31:35;;;;;;;8.47;6.53;;;23.10;18.80;;;;;;5047961;28;20864;-67
2023/08/17 00:34:02;;;;;;;9.47;7.53;;;23.00;18.80;;;;;;5043379;28;20462;-68
2023/08/17 00:36:29;;;;;;;8.70;7.30;;;23.10;18.80;;;;;;5045227;28;20901;-67
2023/08/17 00:38:57;;;;;;;8.57;7.60;;;23.00;18.90;;;;;;5048081;28;20477;-67
2023/08/17 00:41:24;;;;;;;10.20;7.67;;;22.90;19.30;;;;;;5045212;28;20462;-67
2023/08/17 00:43:50;;;;;;;11.93;7.63;;;22.80;19.40;;;;;;5042452;28;20954;-67
2023/08/17 00:46:20;;;;;;;10.90;8.30;;;22.80;19.80;;;;;;5045982;28;20473;-67
2023/08/17 00:48:46;;;;;;;10.63;8.20;;;22.60;20.10;;;;;;5045595;28;20481;-67
2023/08/17 00:51:13;;;;;;;9.93;8.27;;;22.50;20.70;;;;;;5043977;28;20503;-66
2023/08/17 00:53:40;;;;;;;10.03;7.30;;;22.50;21.10;;;;;;5042695;28;20458;-67
2023/08/17 00:56:09;;;;;;;9.13;7.40;;;22.50;21.50;;;;;;5046506;28;20584;-67
2023/08/17 00:58:36;;;;;;;10.60;7.67;;;22.40;21.60;;;;;;5046103;28;20849;-68
2023/08/17 01:01:03;;;;;;;11.33;7.60;;;22.40;21.60;;;;;;5044675;28;20482;-67
2023/08/17 01:03:30;;;;;;;8.67;6.70;;;22.40;21.60;;;;;;5041328;28;20474;-67
2023/08/17 01:05:57;;;;;;;8.40;7.40;;;22.40;22.00;;;;;;5044598;28;20821;-67
2023/08/17 01:08:25;;;;;;;8.43;7.33;;;22.40;22.00;;;;;;5044349;28;20847;-66
2023/08/17 01:10:58;;;;;;;11.50;8.27;;;22.40;22.10;;;;;;5040989;28;20469;-67
2023/08/17 01:13:34;;;;;;;11.17;7.33;;;22.40;22.10;;;;;;5043731;28;20565;-65
2023/08/17 01:16:05;;;;;;;10.63;7.83;;;22.30;22.50;;;;;;5044135;28;21209;-66
2023/08/17 01:18:35;;;;;;;10.80;8.80;;;22.30;22.50;;;;;;5047243;28;20504;-66
2023/08/17 01:21:06;;;;;;;10.73;7.63;;;22.20;23.00;;;;;;5044039;28;20462;-66
2023/08/17 01:23:34;;;;;;;8.80;7.87;;;22.20;23.10;;;;;;5042375;28;20453;-66
2023/08/17 01:26:01;;;;;;;11.03;8.70;;;22.20;23.00;;;;;;5042775;28;20973;-66
2023/08/17 01:28:28;;;;;;;9.70;8.07;;;22.20;23.20;;;;;;5047370;28;20482;-67
2023/08/17 01:31:01;;;;;;;9.03;8.10;;;22.20;23.10;;;;;;5041822;28;20470;-67
2023/08/17 01:33:34;;;;;;;22.30;8.60;;;22.20;23.10;;;;;;5041885;28;20490;-65
2023/08/17 01:36:07;;;;;;;11.27;8.50;;;22.20;23.10;;;;;;5042883;28;20466;-66
2023/08/17 01:38:37;;;;;;;10.67;8.50;;;22.20;23.30;;;;;;5047271;28;20474;-67
2023/08/17 01:41:05;;;;;;;10.07;8.93;;;22.20;23.20;;;;;;5045775;28;20458;-67
2023/08/17 01:43:33;;;;;;;12.57;8.93;;;22.20;23.20;;;;;;5047305;28;20508;-66
2023/08/17 01:46:01;;;;;;;12.60;8.50;;;22.20;23.20;;;;;;5046720;28;20458;-67
2023/08/17 01:48:27;;;;;;;10.67;9.40;;;22.20;23.00;;;;;;5051662;28;20509;-66
2023/08/17 01:50:54;;;;;;;10.27;8.77;;;22.20;23.20;;;;;;5050887;28;20453;-66
2023/08/17 01:53:21;;;;;;;11.60;8.40;;;22.20;23.20;;;;;;5048583;28;20482;-66
2023/08/17 01:55:49;;;;;;;9.40;8.47;;;22.20;23.30;;;;;;5049034;28;20465;-66
2023/08/17 01:58:15;;;;;;;11.20;9.70;;;22.20;23.20;;;;;;5049855;28;20477;-67
2023/08/17 02:00:42;;;;;;;12.23;9.20;;;22.20;23.30;;;;;;5047325;28;20470;-67
2023/08/17 02:03:09;;;;;;;12.90;8.27;;;22.30;23.40;;;;;;5048946;28;20462;-67
2023/08/17 02:05:36;;;;;;;14.83;9.27;;;22.30;23.50;;;;;;5047790;28;20458;-67
2023/08/17 02:08:03;;;;;;;10.13;8.53;;;22.30;23.40;;;;;;5047330;28;20485;-67
2023/08/17 02:10:29;;;;;;;10.33;9.27;;;22.20;23.40;;;;;;5049726;28;20475;-67
2023/08/17 02:12:57;;;;;;;11.20;9.77;;;22.20;23.50;;;;;;5051333;28;20477;-67
2023/08/17 02:15:24;;;;;;;10.97;8.90;;;22.20;23.60;;;;;;5047472;28;20469;-67
2023/08/17 02:17:51;;;;;;;10.20;8.70;;;22.20;23.70;;;;;;5052356;28;21003;-67
2023/08/17 02:20:18;;;;;;;10.97;9.20;;;22.10;24.40;;;;;;5052248;28;20445;-67
2023/08/17 02:22:45;;;;;;;11.20;9.37;;;22.10;24.50;;;;;;5051708;28;20834;-66
2023/08/17 02:25:11;;;;;;;10.87;9.77;;;22.00;24.60;;;;;;5050855;28;20472;-67
2023/08/17 02:27:38;;;;;;;9.83;8.83;;;21.90;24.80;;;;;;5049549;28;20485;-67
2023/08/17 02:30:07;;;;;;;11.70;9.17;;;21.90;25.00;;;;;;5050624;28;20458;-67
2023/08/17 02:32:34;;;;;;;13.67;9.73;;;21.80;25.40;;;;;;5048270;28;20857;-67
2023/08/17 02:35:01;;;;;;;9.83;8.70;;;21.70;25.40;;;;;;5050401;28;20466;-67
2023/08/17 02:37:28;;;;;;;14.43;9.60;;;21.70;25.50;;;;;;5051549;28;20485;-67
2023/08/17 02:39:54;;;;;;;9.90;8.90;;;21.70;25.70;;;;;;5050461;28;20986;-67
2023/08/17 02:42:21;;;;;;;11.17;8.77;;;21.70;25.70;;;;;;5049930;28;20458;-67
2023/08/17 02:44:48;;;;;;;10.80;8.90;;;21.70;25.80;;;;;;5047548;28;20466;-67
2023/08/17 02:47:16;;;;;;;13.50;10.00;;;21.70;25.80;;;;;;5047092;28;20672;-67
2023/08/17 02:49:43;;;;;;;10.57;9.43;;;21.70;26.10;;;;;;5048080;28;20963;-68
2023/08/17 02:52:09;;;;;;;11.07;9.27;;;21.70;26.20;;;;;;5049509;28;20489;-67
2023/08/17 02:54:36;;;;;;;11.40;10.20;;;21.60;26.10;;;;;;5048412;28;20461;-67
2023/08/17 02:57:03;;;;;;;13.43;9.70;;;21.60;26.20;;;;;;5047325;28;20837;-67
2023/08/17 02:59:30;;;;;;;12.03;10.03;;;21.60;26.60;;;;;;5048138;28;20458;-68
2023/08/17 03:01:57;;;;;;;9.67;8.63;;;21.60;26.90;;;;;;5044155;28;20470;-67
2023/08/17 03:04:25;;;;;;;10.50;8.83;;;21.50;26.90;;;;;;5051375;28;20549;-67
2023/08/17 03:06:52;;;;;;;14.73;10.03;;;21.50;26.90;;;;;;5047464;28;20474;-67
2023/08/17 03:09:18;;;;;;;10.37;8.67;;;21.60;26.80;;;;;;5047458;28;20844;-66
2023/08/17 03:11:45;;;;;;;12.10;9.53;;;21.50;26.80;;;;;;5048873;28;20462;-66
2023/08/17 03:14:12;;;;;;;11.53;9.97;;;21.50;27.00;;;;;;5048151;28;20477;-68
2023/08/17 03:16:39;;;;;;;12.23;9.83;;;21.50;27.20;;;;;;5049492;28;20465;-67
2023/08/17 03:19:07;;;;;;;11.73;10.20;;;21.50;27.40;;;;;;5049958;28;20972;-67
2023/08/17 03:21:35;;;;;;;13.33;9.47;;;21.50;27.50;;;;;;5048221;28;20458;-67
2023/08/17 03:24:02;;;;;;;12.43;9.77;;;21.50;27.70;;;;;;5045050;28;20462;-67
2023/08/17 03:26:29;;;;;;;11.77;10.07;;;21.50;27.40;;;;;;5047887;28;20477;-67
2023/08/17 03:28:55;;;;;;;11.43;9.00;;;21.50;27.40;;;;;;5053961;28;20485;-66
2023/08/17 03:31:22;;;;;;;10.67;9.57;;;21.40;27.50;;;;;;5053556;28;20458;-66
2023/08/17 03:33:49;;;;;;;11.37;9.13;;;21.40;27.50;;;;;;5047128;28;20482;-67
2023/08/17 03:36:16;;;;;;;14.23;9.03;;;21.30;27.70;;;;;;5047451;28;20458;-66
2023/08/17 03:38:44;;;;;;;9.67;8.07;;;21.30;28.20;;;;;;5051540;28;20486;-66
2023/08/17 03:41:11;;;;;;;11.50;8.33;;;21.30;28.60;;;;;;5049257;28;20877;-66
2023/08/17 03:43:38;;;;;;;9.00;8.10;;;21.20;28.90;;;;;;5047513;28;20453;-66
2023/08/17 03:46:05;;;;;;;15.17;8.80;;;21.10;29.00;;;;;;5049494;28;20453;-67
2023/08/17 03:48:32;;;;;;;8.87;7.53;;;21.10;29.10;;;;;;5047109;28;20476;-67
2023/08/17 03:50:59;;;;;;;10.73;9.00;;;21.10;29.20;;;;;;5047546;28;20458;-67
2023/08/17 03:53:25;;;;;;;9.70;7.83;;;21.10;29.20;;;;;;5049994;28;20856;-66
2023/08/17 03:55:53;;;;;;;9.20;7.53;;;21.00;29.30;;;;;;5047374;28;20458;-68
2023/08/17 03:58:20;;;;;;;9.60;8.40;;;21.00;29.40;;;;;;5049096;28;20501;-67
2023/08/17 04:00:51;;;;;;;11.07;8.23;;;20.90;29.80;;;;;;5046589;28;20499;-66
2023/08/17 04:03:18;;;;;;;10.00;7.93;;;20.90;29.70;;;;;;5043512;28;20884;-68
2023/08/17 04:05:44;;;;;;;10.80;9.00;;;20.90;29.70;;;;;;5046424;28;20473;-67
2023/08/17 04:08:11;;;;;;;10.03;8.83;;;20.90;29.80;;;;;;5046768;28;20504;-68
2023/08/17 04:10:38;;;;;;;10.27;7.50;;;20.80;29.80;;;;;;5046781;28;20462;-67
2023/08/17 04:13:06;;;;;;;8.70;7.73;;;20.80;30.00;;;;;;5040139;28;20489;-69
2023/08/17 04:15:33;;;;;;;12.47;9.00;;;20.80;29.90;;;;;;5037994;28;20474;-70
2023/08/17 04:17:59;;;;;;;12.00;9.13;;;20.80;30.00;;;;;;5038212;28;21053;-69
2023/08/17 04:20:26;;;;;;;12.67;9.60;;;20.70;30.00;;;;;;5042807;28;20470;-69
2023/08/17 04:22:53;;;;;;;12.00;10.00;;;20.70;30.20;;;;;;5045057;28;20457;-69
2023/08/17 04:25:20;;;;;;;19.80;10.83;;;20.60;30.80;;;;;;5041605;28;20484;-68
2023/08/17 04:27:47;;;;;;;10.93;9.83;;;20.60;30.90;;;;;;5046598;28;20478;-69
2023/08/17 04:30:15;;;;;;;12.40;10.80;;;20.60;30.80;;;;;;5045060;28;20466;-68
2023/08/17 04:32:42;;;;;;;12.43;10.90;;;20.60;31.20;;;;;;5042935;28;20583;-69
2023/08/17 04:35:09;;;;;;;12.63;10.83;;;20.50;31.60;;;;;;5040229;28;20881;-68
2023/08/17 04:37:36;;;;;;;16.37;10.83;;;20.50;31.70;;;;;;5044048;28;20572;-69
2023/08/17 04:40:03;;;;;;;12.10;10.20;;;20.40;31.80;;;;;;5042590;28;20489;-69
2023/08/17 04:42:30;;;;;;;11.43;10.10;;;20.50;31.70;;;;;;5040608;28;20519;-72
2023/08/17 04:44:57;;;;;;;10.90;9.70;;;20.60;31.50;;;;;;5053995;22;21417;-70
2023/08/17 04:47:25;;;;;;;11.33;9.63;;;20.60;31.40;;;;;;5018832;28;20495;-70
2023/08/17 04:49:51;;;;;;;11.73;9.80;;;20.60;31.40;;;;;;5023233;28;20467;-70
2023/08/17 04:52:18;;;;;;;12.53;10.40;;;20.70;31.70;;;;;;5023715;28;20459;-70
2023/08/17 04:54:45;;;;;;;12.93;9.63;;;20.80;31.60;;;;;;5017268;28;20463;-67
2023/08/17 04:57:12;;;;;;;10.67;8.77;;;20.80;31.50;;;;;;5021764;28;20854;-70
2023/08/17 04:59:38;;;;;;;11.23;10.03;;;20.80;31.10;;;;;;5021561;28;20463;-70
2023/08/17 05:02:05;;;;;;;13.03;9.30;;;20.90;31.10;;;;;;5019324;28;20471;-69
2023/08/17 05:04:33;;;;;;;15.77;10.73;;;21.00;30.90;;;;;;5024209;28;20459;-70
2023/08/17 05:07:00;;;;;;;10.63;9.17;;;21.00;30.90;;;;;;5024885;28;21065;-70
2023/08/17 05:09:28;;;;;;;11.27;8.17;;;21.10;31.00;;;;;;5024757;28;20501;-70
2023/08/17 05:11:55;;;;;;;12.10;9.73;;;21.20;30.80;;;;;;5027750;28;20471;-72
2023/08/17 05:14:22;;;;;;;16.00;9.80;;;21.30;30.60;;;;;;5023975;28;21018;-73
2023/08/17 05:16:49;;;;;;;10.73;9.60;;;21.60;30.10;;;;;;5024330;28;20546;-72
2023/08/17 05:19:15;;;;;;;13.33;9.40;;;21.90;29.50;;;;;;5020942;28;20490;-73
2023/08/17 05:21:43;;;;;;;15.33;9.90;;;22.30;28.60;;;;;;5026141;28;20471;-71
2023/08/17 05:24:10;;;;;;;19.90;11.47;;;22.60;27.70;;;;;;5030787;28;20458;-73
2023/08/17 05:26:37;;;;;;;15.67;10.33;;;23.10;26.50;;;;;;5030476;28;20463;-70
2023/08/17 05:29:04;;;;;;;12.40;9.10;;;23.80;24.40;;;;;;5025782;28;20484;-71
2023/08/17 05:31:30;;;;;;;17.83;10.90;;;24.70;21.70;;;;;;5025341;28;20473;-72
2023/08/17 05:33:57;;;;;;;12.23;9.03;;;25.60;18.60;;;;;;5029484;28;20486;-71
2023/08/17 05:36:24;;;;;;;12.60;9.50;;;26.60;15.90;;;;;;5028347;28;20881;-69
2023/08/17 05:38:52;;;;;;;10.60;8.40;;;27.70;13.40;;;;;;5030022;28;20482;-72
2023/08/17 05:41:19;;;;;;;9.90;8.13;;;28.70;10.80;;;;;;5026584;28;20463;-71
2023/08/17 05:43:45;;;;;;;9.67;7.77;;;29.80;8.60;;;;;;5026066;28;20462;-68
2023/08/17 05:46:12;;;;;;;8.93;7.93;;;30.80;6.00;;;;;;5027718;28;20469;-70
2023/08/17 05:48:39;;;;;;;11.97;8.17;;;31.90;3.70;;;;;;5029700;28;20877;-70
2023/08/17 05:51:06;;;;;;;12.03;8.73;;;32.90;1.80;;;;;;5029211;28;21034;-70
2023/08/17 05:53:32;;;;;;;11.30;7.57;;;33.90;1.00;;;;;;5027164;28;20482;-70
2023/08/17 05:56:00;;;;;;;10.43;8.03;;;34.90;1.00;;;;;;5028505;28;20467;-71
2023/08/17 05:58:27;;;;;;;10.63;8.30;;;35.70;1.00;;;;;;5020220;28;20482;-71
2023/08/17 06:00:54;;;;;;;9.83;7.90;;;36.70;1.00;;;;;;5026417;28;20487;-71
2023/08/17 06:03:21;;;;;;;7.33;6.53;;;37.50;1.00;;;;;;5021777;28;20467;-71
2023/08/17 06:05:48;;;;;;;10.90;9.30;;;38.10;1.00;;;;;;5029354;28;20474;-71
2023/08/17 06:08:15;;;;;;;8.50;7.47;;;38.60;1.00;;;;;;5028734;28;20490;-71
2023/08/17 06:10:41;;;;;;;11.10;8.43;;;39.10;1.00;;;;;;5025877;28;21150;-71
2023/08/17 06:13:09;;;;;;;8.50;6.83;;;40.00;1.00;;;;;;5027055;28;20497;-71
2023/08/17 06:15:36;;;;;;;8.77;7.07;;;40.90;1.00;;;;;;5027045;28;20467;-71
2023/08/17 06:18:03;;;;;;;7.87;7.07;;;41.80;1.00;;;;;;5029742;28;21189;-71
2023/08/17 06:20:30;;;;;;;7.57;6.40;;;42.30;1.00;;;;;;5018618;28;20876;-71
2023/08/17 06:22:56;;;;;;;11.23;7.90;;;42.90;1.00;;;;;;5023212;28;20465;-71
2023/08/17 06:25:23;;;;;;;8.20;7.30;;;43.60;1.00;;;;;;5022447;28;20471;-71
2023/08/17 06:27:50;;;;;;;9.07;7.90;;;44.10;1.00;;;;;;5027358;28;21096;-71
2023/08/17 06:30:18;;;;;;;9.03;7.50;;;44.50;1.00;;;;;;5025347;28;20498;-70
2023/08/17 06:32:45;;;;;;;8.90;8.00;;;45.00;1.00;;;;;;5025969;28;20467;-70
2023/08/17 06:35:12;;;;;;;8.87;7.43;;;45.30;1.00;;;;;;5023010;28;20477;-70
2023/08/17 06:37:39;;;;;;;8.97;6.67;;;45.70;1.00;;;;;;5029182;28;20509;-70
2023/08/17 06:40:07;;;;;;;9.60;7.90;;;46.10;1.00;;;;;;5023190;28;20959;-71
2023/08/17 06:42:33;;;;;;;8.30;6.97;;;46.50;1.00;;;;;;5026994;28;20479;-70
2023/08/17 06:45:00;;;;;;;7.97;6.57;;;46.90;1.00;;;;;;5026188;28;20463;-71
2023/08/17 06:47:28;;;;;;;7.70;6.67;;;47.20;1.00;;;;;;5026118;28;20513;-71
2023/08/17 06:49:57;;;;;;;6.83;5.80;;;47.70;1.00;;;;;;5025239;28;20467;-71
2023/08/17 06:52:24;;;;;;;7.30;6.60;;;48.20;1.00;;;;;;5023523;28;20494;-71
2023/08/17 06:54:50;;;;;;;7.20;6.13;;;48.80;1.00;;;;;;5020216;28;20482;-71
2023/08/17 06:57:17;;;;;;;8.73;5.70;;;48.90;1.00;;;;;;5027408;28;20467;-71
2023/08/17 06:59:45;;;;;;;6.80;5.40;;;49.30;1.00;;;;;;5025241;28;20540;-71
2023/08/17 07:02:12;;;;;;;6.70;6.00;;;49.70;1.00;;;;;;5026539;28;20529;-71
2023/08/17 07:04:40;;;;;;;7.87;6.40;;;49.90;1.00;;;;;;5020001;28;20464;-70
2023/08/17 07:07:07;;;;;;;8.67;6.53;;;50.10;1.00;;;;;;5025448;28;20460;-70
2023/08/17 07:09:34;;;;;;;7.80;6.57;;;50.50;1.00;;;;;;5027854;28;20799;-70
2023/08/17 07:12:01;;;;;;;7.70;5.90;;;51.00;1.00;;;;;;5025851;28;20464;-71
2023/08/17 07:14:28;;;;;;;5.83;5.20;;;51.10;1.00;;;;;;5029220;28;20849;-70
2023/08/17 07:16:54;;;;;;;7.77;4.70;;;51.20;1.00;;;;;;5024027;28;20459;-71
2023/08/17 07:19:21;;;;;;;5.60;4.20;;;51.50;1.00;;;;;;5026279;28;21178;-70
2023/08/17 07:21:49;;;;;;;5.07;3.60;;;51.80;1.00;;;;;;5025668;28;20470;-72
2023/08/17 07:24:16;;;;;;;5.10;4.10;;;51.90;1.00;;;;;;5023636;28;20461;-72
2023/08/17 07:26:43;;;;;;;5.83;4.33;;;52.10;1.00;;;;;;5023156;28;20830;-72
2023/08/17 07:29:11;;;;;;;9.70;4.30;;;52.30;1.00;;;;;;5030222;28;20501;-70
2023/08/17 07:31:37;;;;;;;5.53;5.03;;;52.40;1.00;;;;;;5024252;28;20577;-70
2023/08/17 07:34:04;;;;;;;5.13;4.30;;;52.50;1.00;;;;;;5018649;28;20850;-71
2023/08/17 07:36:32;;;;;;;6.10;4.40;;;52.80;1.00;;;;;;5023385;28;20470;-70
2023/08/17 07:39:00;;;;;;;6.00;4.67;;;53.00;1.00;;;;;;5024562;28;20490;-70
2023/08/17 07:41:27;;;;;;;5.07;3.57;;;52.80;1.00;;;;;;5023058;28;20458;-71
2023/08/17 07:43:54;;;;;;;6.17;5.00;;;51.30;1.00;;;;;;5028514;28;22746;-72
2023/08/17 07:46:21;;;;;;;6.07;5.00;;;50.40;1.00;;;;;;5023593;28;20466;-70
2023/08/17 07:48:48;;;;;;;7.63;5.53;;;50.10;1.00;;;;;;5024602;28;21012;-70
2023/08/17 07:51:15;;;;;;;7.13;5.27;;;48.90;1.00;;;;;;5021021;28;21147;-71
2023/08/17 07:53:42;;;;;;;6.03;4.97;;;48.50;1.00;;;;;;5022045;28;20489;-71
2023/08/17 07:56:10;;;;;;;7.07;5.37;;;49.20;1.00;;;;;;5026555;28;20467;-71
2023/08/17 07:58:37;;;;;;;7.10;5.30;;;49.70;1.00;;;;;;5024374;28;20486;-71
2023/08/17 08:01:03;;;;;;;5.90;5.20;;;50.00;1.00;;;;;;5024709;28;21017;-71
2023/08/17 08:03:30;;;;;;;8.40;5.10;;;50.70;1.00;;;;;;5028546;28;20470;-71
2023/08/17 08:05:57;;;;;;;5.73;5.00;;;51.40;1.00;;;;;;5022874;28;20467;-71
2023/08/17 08:08:24;;;;;;;8.43;5.53;;;51.70;1.00;;;;;;5024577;28;20483;-71
2023/08/17 08:10:50;;;;;;;6.30;5.03;;;51.80;1.00;;;;;;5024314;28;20470;-72
2023/08/17 08:13:18;;;;;;;6.43;5.00;;;51.80;1.00;;;;;;5024759;28;20943;-71
2023/08/17 08:15:45;;;;;;;6.07;5.17;;;51.10;1.00;;;;;;5025546;28;20463;-71
2023/08/17 08:18:12;;;;;;;5.90;5.30;;;50.20;1.00;;;;;;5024775;28;20985;-71
2023/08/17 08:20:39;;;;;;;7.83;5.80;;;49.70;1.00;;;;;;5025848;28;20592;-71
2023/08/17 08:23:05;;;;;;;6.93;4.80;;;49.40;1.00;;;;;;5020584;28;20467;-71
2023/08/17 08:25:32;;;;;;;5.50;5.00;;;49.30;1.00;;;;;;5019297;28;20463;-72
2023/08/17 08:27:59;;;;;;;7.60;5.00;;;49.90;1.00;;;;;;5024443;28;20495;-70
2023/08/17 08:30:27;;;;;;;6.87;5.20;;;50.80;1.00;;;;;;5021073;28;20962;-71
2023/08/17 08:32:55;;;;;;;7.17;4.20;;;51.60;1.00;;;;;;5019900;28;20467;-71
2023/08/17 08:35:24;;;;;;;6.17;5.10;;;52.30;1.00;;;;;;5026347;28;20482;-71
2023/08/17 08:37:50;;;;;;;5.73;5.17;;;53.10;1.00;;;;;;5025129;28;20486;-70
2023/08/17 08:40:18;;;;;;;5.60;4.60;;;53.40;1.00;;;;;;5021959;28;20462;-70
2023/08/17 08:42:45;;;;;;;6.23;4.70;;;53.10;1.00;;;;;;5019215;28;20462;-71
2023/08/17 08:45:12;;;;;;;6.73;4.37;;;52.60;1.00;;;;;;5024235;28;20467;-71
2023/08/17 08:47:45;;;;;;;5.40;4.50;;;51.70;1.00;;;;;;5026090;28;20486;-71
2023/08/17 08:50:17;;;;;;;5.80;4.20;;;50.60;1.00;;;;;;5022680;28;20470;-69
2023/08/17 08:52:54;;;;;;;6.53;3.83;;;49.80;1.00;;;;;;5023104;28;20463;-70
2023/08/17 08:55:24;;;;;;;6.30;4.40;;;49.40;1.00;;;;;;5023858;28;20477;-70
2023/08/17 08:57:53;;;;;;;5.40;4.87;;;49.10;1.00;;;;;;5025576;28;20501;-71
2023/08/17 09:00:20;;;;;;;6.43;5.00;;;48.80;1.00;;;;;;5025709;28;20837;-71
2023/08/17 09:02:49;;;;;;;5.37;4.17;;;48.30;1.00;;;;;;5026299;28;20475;-70
2023/08/17 09:05:17;;;;;;;7.27;5.70;;;47.70;1.00;;;;;;5024940;28;20477;-72
2023/08/17 09:07:44;;;;;;;6.40;5.33;;;47.10;1.00;;;;;;5023412;28;20490;-72
2023/08/17 09:10:11;;;;;;;6.10;3.87;;;46.70;1.00;;;;;;5022717;28;20475;-72
2023/08/17 09:12:38;;;;;;;5.70;4.33;;;46.80;1.00;;;;;;5021447;28;20470;-72
2023/08/17 09:15:05;;;;;;;4.60;3.50;;;47.00;1.00;;;;;;5020145;28;20501;-72
2023/08/17 09:17:34;;;;;;;5.47;3.53;;;47.80;1.00;;;;;;5023616;28;20483;-72
2023/08/17 09:20:03;;;;;;;4.80;4.00;;;48.50;1.00;;;;;;5025250;28;20972;-72
2023/08/17 09:22:38;;;;;;;5.77;4.20;;;48.90;1.00;;;;;;5025975;28;20467;-72
2023/08/17 09:25:06;;;;;;;7.27;4.50;;;49.40;1.00;;;;;;5018584;28;20486;-72
2023/08/17 09:27:33;;;;;;;5.33;4.00;;;49.80;1.00;;;;;;5023866;28;20489;-70
2023/08/17 09:30:03;;;;;;;6.73;4.40;;;50.60;1.00;;;;;;5021723;28;20491;-71
2023/08/17 09:32:31;;;;;;;6.83;3.90;;;51.20;1.00;;;;;;5026265;28;20485;-70
2023/08/17 09:34:58;;;;;;;8.20;4.57;;;52.00;1.00;;;;;;5020704;28;20478;-71
2023/08/17 09:37:28;;;;;;;4.23;3.83;;;52.50;1.00;;;;;;5024317;28;20493;-72
2023/08/17 09:39:54;;;;;;;6.73;3.97;;;53.10;1.00;;;;;;5023903;28;20465;-72
2023/08/17 09:42:22;;;;;;;4.23;3.53;;;52.50;1.00;;;;;;5024102;28;20473;-70
2023/08/17 09:44:49;;;;;;;5.13;3.53;;;51.40;1.00;;;;;;5021729;28;20955;-72
2023/08/17 09:47:17;;;;;;;4.60;2.60;;;50.70;1.00;;;;;;5023369;28;20478;-72
2023/08/17 09:49:48;;;;;;;3.73;2.70;;;50.80;1.00;;;;;;5022814;28;20466;-72
2023/08/17 09:52:15;;;;;;;5.13;3.40;;;51.20;1.00;;;;;;5022437;28;20450;-71
2023/08/17 09:54:44;;;;;;;4.43;3.00;;;50.90;1.00;;;;;;5026077;28;20485;-71
2023/08/17 09:57:11;;;;;;;5.00;3.30;;;50.40;1.00;;;;;;5024298;28;20484;-71
2023/08/17 09:59:38;;;;;;;4.43;2.53;;;50.40;1.00;;;;;;5025807;28;21167;-68
2023/08/17 10:02:11;;;;;;;5.90;3.10;;;50.30;1.00;;;;;;5022984;28;20486;-69
2023/08/17 10:04:38;;;;;;;4.13;2.80;;;50.30;1.00;;;;;;5021422;28;20466;-69
2023/08/17 10:07:08;;;;;;;4.27;3.23;;;50.70;1.00;;;;;;5019586;28;20462;-69
2023/08/17 10:09:40;;;;;;;4.30;3.10;;;51.30;1.00;;;;;;5028513;28;20839;-69
2023/08/17 10:12:12;;;;;;;4.93;3.30;;;51.40;1.00;;;;;;5026476;28;20493;-71
2023/08/17 10:14:47;;;;;;;4.83;3.30;;;51.80;1.00;;;;;;5029156;28;20486;-68
2023/08/17 10:17:18;;;;;;;6.73;3.87;;;51.50;1.00;;;;;;5024822;28;20572;-68
2023/08/17 10:19:52;;;;;;;5.47;3.70;;;51.00;1.00;;;;;;5028778;28;20462;-71
2023/08/17 10:22:24;;;;;;;4.00;3.13;;;50.40;1.00;;;;;;5024949;28;21036;-72
2023/08/17 10:24:52;;;;;;;5.13;3.40;;;49.90;1.00;;;;;;5022331;28;20458;-69
2023/08/17 10:27:22;;;;;;;5.63;3.47;;;50.00;1.00;;;;;;5021402;28;20466;-69
2023/08/17 10:29:51;;;;;;;4.87;3.50;;;50.40;1.00;;;;;;5025962;28;20466;-69
2023/08/17 10:32:18;;;;;;;5.10;3.40;;;50.90;1.00;;;;;;5026950;28;20475;-70
2023/08/17 10:34:45;;;;;;;3.90;3.30;;;50.60;1.00;;;;;;5027990;28;20482;-69
2023/08/17 10:37:13;;;;;;;5.73;3.80;;;49.40;1.00;;;;;;5024850;28;20472;-67
2023/08/17 10:39:45;;;;;;;4.90;3.53;;;48.10;1.00;;;;;;5025016;28;20470;-67
2023/08/17 10:42:12;;;;;;;6.13;3.90;;;46.60;1.00;;;;;;5026211;28;20470;-67
2023/08/17 10:44:42;;;;;;;5.27;3.23;;;45.30;1.00;;;;;;5027258;28;20455;-67
2023/08/17 10:47:22;;;;;;;5.77;3.60;;;44.40;1.00;;;;;;5028132;28;20560;-67
2023/08/17 10:49:50;;;;;;;6.70;3.80;;;43.60;1.00;;;;;;5023913;28;20458;-69
2023/08/17 10:52:27;;;;;;;5.37;4.30;;;42.90;1.00;;;;;;5024698;28;20467;-70
2023/08/17 10:54:54;;;;;;;6.63;3.83;;;42.20;1.00;;;;;;5025460;28;20518;-70
2023/08/17 10:57:34;;;;;;;6.43;4.40;;;41.70;1.00;;;;;;5033580;22;20634;-67
2023/08/17 11:00:26;;;;;;;6.97;4.20;;;41.00;1.00;;;;;;5007919;28;20959;-69
2023/08/17 11:02:54;;;;;;;5.50;3.93;;;40.60;1.00;;;;;;5017251;28;20484;-67
2023/08/17 11:05:36;;;;;;;7.17;4.20;;;40.10;1.00;;;;;;5022633;28;20873;-68
2023/08/17 11:08:03;;;;;;;6.93;4.00;;;39.70;1.00;;;;;;5023722;28;20536;-68
2023/08/17 11:10:30;;;;;;;7.03;5.10;;;39.20;1.00;;;;;;5024858;28;20470;-69
2023/08/17 11:12:59;;;;;;;6.40;4.13;;;38.90;1.00;;;;;;5022767;28;20467;-68
2023/08/17 11:15:37;;;;;;;6.47;3.87;;;38.60;1.00;;;;;;5021130;28;20495;-68
2023/08/17 11:18:05;;;;;;;6.20;4.57;;;38.30;1.00;;;;;;5020920;28;20490;-68
2023/08/17 11:20:32;;;;;;;7.37;4.43;;;38.10;1.00;;;;;;5027582;28;20477;-68
2023/08/17 11:22:59;;;;;;;7.50;4.70;;;37.90;1.00;;;;;;5027944;28;20467;-69
2023/08/17 11:25:27;;;;;;;9.27;4.60;;;37.70;1.00;;;;;;5027253;28;20529;-68
2023/08/17 11:27:54;;;;;;;5.80;4.17;;;37.70;1.00;;;;;;5023518;28;20523;-67
2023/08/17 11:30:22;;;;;;;12.70;4.90;;;37.40;1.00;;;;;;5023705;28;20467;-69
2023/08/17 11:32:50;;;;;;;5.93;3.97;;;37.30;1.00;;;;;;5024147;28;20529;-67
2023/08/17 11:35:17;;;;;;;7.00;4.37;;;37.30;1.00;;;;;;5026638;28;21079;-68
2023/08/17 11:37:44;;;;;;;7.10;4.03;;;37.20;1.00;;;;;;5025653;28;20510;-68
2023/08/17 11:40:12;;;;;;;8.57;4.40;;;37.10;1.00;;;;;;5020192;28;20462;-69
2023/08/17 11:42:39;;;;;;;6.80;4.53;;;37.10;1.00;;;;;;5023737;28;20566;-70
2023/08/17 11:45:09;;;;;;;6.60;4.87;;;37.10;1.00;;;;;;5023892;28;20463;-69
2023/08/17 11:47:36;;;;;;;8.57;5.03;;;37.00;1.00;;;;;;5023266;28;20526;-68
2023/08/17 11:50:05;;;;;;;6.63;4.27;;;36.90;1.00;;;;;;5016036;28;20478;-69
2023/08/17 11:52:33;;;;;;;12.70;5.03;;;36.70;1.00;;;;;;5021901;28;20487;-68
2023/08/17 11:55:00;;;;;;;6.23;3.73;;;36.60;1.00;;;;;;5023466;28;20479;-69
2023/08/17 11:57:27;;;;;;;7.80;4.50;;;36.40;1.00;;;;;;5018060;28;20848;-68
2023/08/17 11:59:55;;;;;;;7.57;4.47;;;36.40;1.00;;;;;;5025123;28;20478;-69
2023/08/17 12:02:23;;;;;;;5.47;4.27;;;36.30;1.00;;;;;;5021399;28;20482;-67
2023/08/17 12:04:50;;;;;;;7.63;4.80;;;36.20;1.00;;;;;;5024109;28;20899;-68
2023/08/17 12:07:19;;;;;;;6.70;4.57;;;36.10;1.00;;;;;;5020553;28;20463;-68
2023/08/17 12:09:46;;;;;;;5.63;4.40;;;35.90;1.00;;;;;;5023939;28;20959;-67
2023/08/17 12:12:13;;;;;;;5.83;4.73;;;35.70;1.00;;;;;;5017293;28;20466;-68
2023/08/17 12:14:42;;;;;;;6.10;4.13;;;35.50;1.00;;;;;;5020066;28;21256;-68
2023/08/17 12:17:15;;;;;;;6.13;4.80;;;35.30;1.00;;;;;;5022418;28;20552;-68
2023/08/17 12:19:44;;;;;;;7.20;4.70;;;35.20;1.00;;;;;;5025656;28;20456;-68
2023/08/17 12:22:13;;;;;;;5.90;3.77;;;35.00;1.00;;;;;;5021501;28;20470;-67
2023/08/17 12:24:41;;;;;;;6.77;4.90;;;35.00;1.00;;;;;;5025377;28;20474;-67
2023/08/17 12:27:09;;;;;;;6.83;4.90;;;34.90;1.00;;;;;;5017436;28;20464;-67
2023/08/17 12:29:48;;;;;;;8.30;4.90;;;34.80;1.00;;;;;;5022160;28;20470;-66
2023/08/17 12:32:15;;;;;;;5.80;4.43;;;34.80;1.00;;;;;;5022680;28;20507;-67
2023/08/17 12:34:42;;;;;;;7.60;5.43;;;34.60;1.00;;;;;;5021733;28;20474;-67
2023/08/17 12:37:09;;;;;;;9.43;4.87;;;34.40;1.00;;;;;;5026292;28;20463;-67
2023/08/17 12:39:36;;;;;;;6.40;4.43;;;34.20;1.00;;;;;;5019266;28;20490;-67
2023/08/17 12:42:05;;;;;;;9.17;4.83;;;34.00;1.00;;;;;;5021781;28;20467;-68
2023/08/17 12:44:32;;;;;;;10.23;4.87;;;34.00;1.00;;;;;;5024872;28;20475;-67
2023/08/17 12:47:00;;;;;;;6.00;4.80;;;33.90;1.00;;;;;;5022598;28;20459;-68
2023/08/17 12:49:26;;;;;;;8.10;4.77;;;33.90;1.00;;;;;;5023293;28;20483;-68
2023/08/17 12:51:53;;;;;;;7.10;4.60;;;33.90;1.00;;;;;;5020677;28;20478;-68